sensor_id;sensor_type;location;lat;lon;timestamp;temperature;humidity
73576;DHT22;61859;49.204;8.140;2023-07-29T00:01:08;18.50;99.90
73576;DHT22;61859;49.204;8.140;2023-07-29T00:03:33;18.50;99.90
73576;DHT22;61859;49.204;8.140;2023-07-29T00:05:59;18.50;99.90
73576;DHT22;61859;49.204;8.140;2023-07-29T00:08:25;18.50;99.90
73576;DHT22;61859;49.204;8.140;2023-07-29T00:10:50;18.40;99.90
73576;DHT22;61859;49.204;8.140;2023-07-29T00:13:16;18.50;99.90
73576;DHT22;61859;49.204;8.140;2023-07-29T00:15:41;18.40;99.90
73576;DHT22;61859;49.204;8.140;2023-07-29T00:18:07;18.40;99.90
73576;DHT22;61859;49.204;8.140;2023-07-29T00:20:32;18.50;99.90
73576;DHT22;61859;49.204;8.140;2023-07-29T00:22:58;18.50;99.90
73576;DHT22;61859;49.204;8.140;2023-07-29T00:25:24;18.50;99.90
73576;DHT22;61859;49.204;8.140;2023-07-29T00:27:49;18.50;99.90
73576;DHT22;61859;49.204;8.140;2023-07-29T00:30:15;18.50;99.90
73576;DHT22;61859;49.204;8.140;2023-07-29T00:32:41;18.60;99.90
73576;DHT22;61859;49.204;8.140;2023-07-29T00:35:07;18.60;99.90
73576;DHT22;61859;49.204;8.140;2023-07-29T00:37:32;18.60;99.90
73576;DHT22;61859;49.204;8.140;2023-07-29T00:39:58;18.70;99.90
73576;DHT22;61859;49.204;8.140;2023-07-29T00:42:24;18.60;99.90
73576;DHT22;61859;49.204;8.140;2023-07-29T00:44:50;18.80;99.90
73576;DHT22;61859;49.204;8.140;2023-07-29T00:47:16;18.80;99.90
73576;DHT22;61859;49.204;8.140;2023-07-29T00:49:43;18.70;99.90
73576;DHT22;61859;49.204;8.140;2023-07-29T00:52:09;18.80;99.90
73576;DHT22;61859;49.204;8.140;2023-07-29T00:54:37;18.80;99.90
73576;DHT22;61859;49.204;8.140;2023-07-29T00:57:03;18.90;99.90
73576;DHT22;61859;49.204;8.140;2023-07-29T00:59:30;18.90;99.90
73576;DHT22;61859;49.204;8.140;2023-07-29T01:01:57;18.80;99.90
73576;DHT22;61859;49.204;8.140;2023-07-29T01:04:23;18.70;99.90
73576;DHT22;61859;49.204;8.140;2023-07-29T01:07:24;18.80;99.90
73576;DHT22;61859;49.204;8.140;2023-07-29T01:10:01;18.80;99.90
73576;DHT22;61859;49.204;8.140;2023-07-29T01:15:16;18.80;99.90
73576;DHT22;61859;49.204;8.140;2023-07-29T01:17:46;18.80;99.90
73576;DHT22;61859;49.204;8.140;2023-07-29T01:20:16;18.90;99.90
73576;DHT22;61859;49.204;8.140;2023-07-29T01:22:43;18.90;99.90
73576;DHT22;61859;49.204;8.140;2023-07-29T01:25:09;18.90;99.90
73576;DHT22;61859;49.204;8.140;2023-07-29T01:27:34;18.90;99.90
73576;DHT22;61859;49.204;8.140;2023-07-29T01:30:01;18.90;99.90
73576;DHT22;61859;49.204;8.140;2023-07-29T01:32:35;18.80;99.90
73576;DHT22;61859;49.204;8.140;2023-07-29T01:37:37;18.80;99.90
73576;DHT22;61859;49.204;8.140;2023-07-29T01:40:05;18.70;99.90
73576;DHT22;61859;49.204;8.140;2023-07-29T01:42:32;18.80;99.90
73576;DHT22;61859;49.204;8.140;2023-07-29T01:44:58;18.80;99.90
73576;DHT22;61859;49.204;8.140;2023-07-29T01:47:23;18.90;99.90
73576;DHT22;61859;49.204;8.140;2023-07-29T01:49:49;18.90;99.90
73576;DHT22;61859;49.204;8.140;2023-07-29T01:52:14;18.80;99.90
73576;DHT22;61859;49.204;8.140;2023-07-29T01:54:40;18.80;99.90
73576;DHT22;61859;49.204;8.140;2023-07-29T01:57:05;18.80;99.90
73576;DHT22;61859;49.204;8.140;2023-07-29T01:59:31;18.90;99.90
73576;DHT22;61859;49.204;8.140;2023-07-29T02:01:56;18.90;99.90
73576;DHT22;61859;49.204;8.140;2023-07-29T02:04:22;18.90;99.90
73576;DHT22;61859;49.204;8.140;2023-07-29T02:06:48;18.90;99.90
73576;DHT22;61859;49.204;8.140;2023-07-29T02:09:13;19.00;99.90
73576;DHT22;61859;49.204;8.140;2023-07-29T02:11:39;19.00;99.90
73576;DHT22;61859;49.204;8.140;2023-07-29T02:14:04;19.00;99.90
73576;DHT22;61859;49.204;8.140;2023-07-29T02:16:30;19.00;99.90
73576;DHT22;61859;49.204;8.140;2023-07-29T02:18:55;19.10;99.90
73576;DHT22;61859;49.204;8.140;2023-07-29T02:21:21;19.00;99.90
73576;DHT22;61859;49.204;8.140;2023-07-29T02:23:46;19.00;99.90
73576;DHT22;61859;49.204;8.140;2023-07-29T02:26:12;19.00;99.90
73576;DHT22;61859;49.204;8.140;2023-07-29T02:28:37;19.00;99.90
73576;DHT22;61859;49.204;8.140;2023-07-29T02:31:20;19.00;99.90
73576;DHT22;61859;49.204;8.140;2023-07-29T02:33:46;19.00;99.90
73576;DHT22;61859;49.204;8.140;2023-07-29T02:36:12;19.00;99.90
73576;DHT22;61859;49.204;8.140;2023-07-29T02:38:38;19.10;99.90
73576;DHT22;61859;49.204;8.140;2023-07-29T02:41:04;19.10;99.90
73576;DHT22;61859;49.204;8.140;2023-07-29T02:43:29;19.10;99.90
73576;DHT22;61859;49.204;8.140;2023-07-29T02:45:55;19.10;99.90
73576;DHT22;61859;49.204;8.140;2023-07-29T02:48:21;19.10;99.90
73576;DHT22;61859;49.204;8.140;2023-07-29T02:50:46;19.10;99.90
73576;DHT22;61859;49.204;8.140;2023-07-29T02:53:12;19.10;99.90
73576;DHT22;61859;49.204;8.140;2023-07-29T02:55:40;19.20;99.90
73576;DHT22;61859;49.204;8.140;2023-07-29T02:58:06;19.20;99.90
73576;DHT22;61859;49.204;8.140;2023-07-29T03:00:32;19.10;99.90
73576;DHT22;61859;49.204;8.140;2023-07-29T03:02:58;19.20;99.90
73576;DHT22;61859;49.204;8.140;2023-07-29T03:05:26;19.20;99.90
73576;DHT22;61859;49.204;8.140;2023-07-29T03:07:52;19.20;99.90
73576;DHT22;61859;49.204;8.140;2023-07-29T03:10:17;19.20;99.90
73576;DHT22;61859;49.204;8.140;2023-07-29T03:12:43;19.20;99.90
73576;DHT22;61859;49.204;8.140;2023-07-29T03:15:09;19.20;99.90
73576;DHT22;61859;49.204;8.140;2023-07-29T03:17:34;19.30;99.90
73576;DHT22;61859;49.204;8.140;2023-07-29T03:20:00;19.30;99.90
73576;DHT22;61859;49.204;8.140;2023-07-29T03:22:26;19.20;99.90
73576;DHT22;61859;49.204;8.140;2023-07-29T03:24:51;19.20;99.90
73576;DHT22;61859;49.204;8.140;2023-07-29T03:27:17;19.10;99.90
73576;DHT22;61859;49.204;8.140;2023-07-29T03:29:42;19.20;99.90
73576;DHT22;61859;49.204;8.140;2023-07-29T03:32:08;19.20;99.90
73576;DHT22;61859;49.204;8.140;2023-07-29T03:34:34;19.10;99.90
73576;DHT22;61859;49.204;8.140;2023-07-29T03:37:00;19.10;99.90
73576;DHT22;61859;49.204;8.140;2023-07-29T03:39:26;19.10;99.90
73576;DHT22;61859;49.204;8.140;2023-07-29T03:41:52;19.10;99.90
73576;DHT22;61859;49.204;8.140;2023-07-29T03:44:17;19.10;99.90
73576;DHT22;61859;49.204;8.140;2023-07-29T03:46:47;19.10;99.90
73576;DHT22;61859;49.204;8.140;2023-07-29T03:49:12;19.20;99.90
73576;DHT22;61859;49.204;8.140;2023-07-29T03:51:38;19.10;99.90
73576;DHT22;61859;49.204;8.140;2023-07-29T03:54:03;19.20;99.90
73576;DHT22;61859;49.204;8.140;2023-07-29T03:56:29;19.20;99.90
73576;DHT22;61859;49.204;8.140;2023-07-29T03:59:02;19.10;99.90
73576;DHT22;61859;49.204;8.140;2023-07-29T04:01:28;19.20;99.90
73576;DHT22;61859;49.204;8.140;2023-07-29T04:03:54;19.10;99.90
73576;DHT22;61859;49.204;8.140;2023-07-29T04:06:20;19.20;99.90
73576;DHT22;61859;49.204;8.140;2023-07-29T04:08:46;19.20;99.90
73576;DHT22;61859;49.204;8.140;2023-07-29T04:11:11;19.20;99.90
73576;DHT22;61859;49.204;8.140;2023-07-29T04:13:37;19.10;99.90
73576;DHT22;61859;49.204;8.140;2023-07-29T04:16:07;19.10;99.90
73576;DHT22;61859;49.204;8.140;2023-07-29T04:18:32;19.10;99.90
73576;DHT22;61859;49.204;8.140;2023-07-29T04:20:58;19.10;99.90
73576;DHT22;61859;49.204;8.140;2023-07-29T04:23:23;19.00;99.90
73576;DHT22;61859;49.204;8.140;2023-07-29T04:25:49;18.90;99.90
73576;DHT22;61859;49.204;8.140;2023-07-29T04:28:15;18.90;99.90
73576;DHT22;61859;49.204;8.140;2023-07-29T04:30:41;19.00;99.90
73576;DHT22;61859;49.204;8.140;2023-07-29T04:33:06;19.00;99.90
73576;DHT22;61859;49.204;8.140;2023-07-29T04:35:32;18.90;99.90
73576;DHT22;61859;49.204;8.140;2023-07-29T04:37:57;18.90;99.90
73576;DHT22;61859;49.204;8.140;2023-07-29T04:40:23;19.00;99.90
73576;DHT22;61859;49.204;8.140;2023-07-29T04:42:49;19.00;99.90
73576;DHT22;61859;49.204;8.140;2023-07-29T04:45:15;19.00;99.90
73576;DHT22;61859;49.204;8.140;2023-07-29T04:47:41;19.00;99.90
73576;DHT22;61859;49.204;8.140;2023-07-29T04:50:07;19.00;99.90
73576;DHT22;61859;49.204;8.140;2023-07-29T04:52:33;19.00;99.90
73576;DHT22;61859;49.204;8.140;2023-07-29T04:54:58;19.00;99.90
73576;DHT22;61859;49.204;8.140;2023-07-29T04:57:24;19.10;99.90
73576;DHT22;61859;49.204;8.140;2023-07-29T04:59:49;19.00;99.90
73576;DHT22;61859;49.204;8.140;2023-07-29T05:02:15;19.00;99.90
73576;DHT22;61859;49.204;8.140;2023-07-29T05:04:40;19.00;99.90
73576;DHT22;61859;49.204;8.140;2023-07-29T05:07:06;19.00;99.90
73576;DHT22;61859;49.204;8.140;2023-07-29T05:09:32;19.00;99.90
73576;DHT22;61859;49.204;8.140;2023-07-29T05:11:57;19.00;99.90
73576;DHT22;61859;49.204;8.140;2023-07-29T05:14:23;19.00;99.90
73576;DHT22;61859;49.204;8.140;2023-07-29T05:16:49;19.00;99.90
73576;DHT22;61859;49.204;8.140;2023-07-29T05:19:15;19.00;99.90
73576;DHT22;61859;49.204;8.140;2023-07-29T05:21:40;19.10;99.90
73576;DHT22;61859;49.204;8.140;2023-07-29T05:24:06;19.10;99.90
73576;DHT22;61859;49.204;8.140;2023-07-29T05:26:31;19.10;99.90
73576;DHT22;61859;49.204;8.140;2023-07-29T05:28:57;19.20;99.90
73576;DHT22;61859;49.204;8.140;2023-07-29T05:31:23;19.10;99.90
73576;DHT22;61859;49.204;8.140;2023-07-29T05:33:48;19.20;99.90
73576;DHT22;61859;49.204;8.140;2023-07-29T05:36:14;19.20;99.90
73576;DHT22;61859;49.204;8.140;2023-07-29T05:38:39;19.20;99.90
73576;DHT22;61859;49.204;8.140;2023-07-29T05:41:05;19.20;99.90
73576;DHT22;61859;49.204;8.140;2023-07-29T05:43:31;19.30;99.90
73576;DHT22;61859;49.204;8.140;2023-07-29T05:45:56;19.30;99.90
73576;DHT22;61859;49.204;8.140;2023-07-29T05:48:22;19.20;99.90
73576;DHT22;61859;49.204;8.140;2023-07-29T05:50:47;19.20;99.90
73576;DHT22;61859;49.204;8.140;2023-07-29T05:53:14;19.30;99.90
73576;DHT22;61859;49.204;8.140;2023-07-29T05:55:39;19.30;99.90
73576;DHT22;61859;49.204;8.140;2023-07-29T05:58:05;19.40;99.90
73576;DHT22;61859;49.204;8.140;2023-07-29T06:00:31;19.50;99.90
73576;DHT22;61859;49.204;8.140;2023-07-29T06:02:56;19.60;99.90
73576;DHT22;61859;49.204;8.140;2023-07-29T06:05:22;19.70;99.90
73576;DHT22;61859;49.204;8.140;2023-07-29T06:07:48;19.80;99.90
73576;DHT22;61859;49.204;8.140;2023-07-29T06:10:15;19.80;99.90
73576;DHT22;61859;49.204;8.140;2023-07-29T06:12:44;19.80;99.90
73576;DHT22;61859;49.204;8.140;2023-07-29T06:15:10;19.80;99.90
73576;DHT22;61859;49.204;8.140;2023-07-29T06:17:35;19.90;99.90
73576;DHT22;61859;49.204;8.140;2023-07-29T06:20:01;19.90;99.90
73576;DHT22;61859;49.204;8.140;2023-07-29T06:22:27;19.90;99.90
73576;DHT22;61859;49.204;8.140;2023-07-29T06:24:53;20.00;99.90
73576;DHT22;61859;49.204;8.140;2023-07-29T06:27:18;20.10;99.90
73576;DHT22;61859;49.204;8.140;2023-07-29T06:29:44;20.20;99.90
73576;DHT22;61859;49.204;8.140;2023-07-29T06:32:09;20.10;99.90
73576;DHT22;61859;49.204;8.140;2023-07-29T06:34:35;20.20;99.90
73576;DHT22;61859;49.204;8.140;2023-07-29T06:37:01;20.20;99.90
73576;DHT22;61859;49.204;8.140;2023-07-29T06:39:26;20.20;99.90
73576;DHT22;61859;49.204;8.140;2023-07-29T06:41:52;20.20;99.90
73576;DHT22;61859;49.204;8.140;2023-07-29T06:44:17;20.20;99.90
73576;DHT22;61859;49.204;8.140;2023-07-29T06:46:43;20.30;99.90
73576;DHT22;61859;49.204;8.140;2023-07-29T06:49:08;20.40;99.90
73576;DHT22;61859;49.204;8.140;2023-07-29T06:51:34;20.50;99.90
73576;DHT22;61859;49.204;8.140;2023-07-29T06:54:03;20.50;99.90
73576;DHT22;61859;49.204;8.140;2023-07-29T06:56:29;20.50;99.90
73576;DHT22;61859;49.204;8.140;2023-07-29T06:58:54;20.60;99.90
73576;DHT22;61859;49.204;8.140;2023-07-29T07:01:20;20.70;99.90
73576;DHT22;61859;49.204;8.140;2023-07-29T07:03:45;20.70;99.90
73576;DHT22;61859;49.204;8.140;2023-07-29T07:06:11;20.90;99.90
73576;DHT22;61859;49.204;8.140;2023-07-29T07:08:36;21.20;99.10
73576;DHT22;61859;49.204;8.140;2023-07-29T07:11:02;21.40;99.20
73576;DHT22;61859;49.204;8.140;2023-07-29T07:13:28;21.70;97.80
73576;DHT22;61859;49.204;8.140;2023-07-29T07:15:57;21.70;95.70
73576;DHT22;61859;49.204;8.140;2023-07-29T07:18:22;21.60;95.90
73576;DHT22;61859;49.204;8.140;2023-07-29T07:20:49;21.40;96.00
73576;DHT22;61859;49.204;8.140;2023-07-29T07:23:15;21.30;96.80
73576;DHT22;61859;49.204;8.140;2023-07-29T07:25:41;21.10;96.90
73576;DHT22;61859;49.204;8.140;2023-07-29T07:28:11;21.00;97.50
73576;DHT22;61859;49.204;8.140;2023-07-29T07:30:40;20.90;98.10
73576;DHT22;61859;49.204;8.140;2023-07-29T07:33:08;20.90;98.20
73576;DHT22;61859;49.204;8.140;2023-07-29T07:35:34;20.90;98.10
73576;DHT22;61859;49.204;8.140;2023-07-29T07:38:00;20.90;98.30
73576;DHT22;61859;49.204;8.140;2023-07-29T07:40:27;21.10;98.00
73576;DHT22;61859;49.204;8.140;2023-07-29T07:42:53;21.10;97.70
73576;DHT22;61859;49.204;8.140;2023-07-29T07:45:19;21.20;97.50
73576;DHT22;61859;49.204;8.140;2023-07-29T07:47:44;21.10;97.90
73576;DHT22;61859;49.204;8.140;2023-07-29T07:50:10;21.20;97.80
73576;DHT22;61859;49.204;8.140;2023-07-29T07:52:35;21.20;97.30
73576;DHT22;61859;49.204;8.140;2023-07-29T07:55:02;21.30;97.30
73576;DHT22;61859;49.204;8.140;2023-07-29T07:57:27;21.40;97.60
73576;DHT22;61859;49.204;8.140;2023-07-29T07:59:53;21.50;96.70
73576;DHT22;61859;49.204;8.140;2023-07-29T08:02:18;21.60;94.90
73576;DHT22;61859;49.204;8.140;2023-07-29T08:04:44;21.50;94.60
73576;DHT22;61859;49.204;8.140;2023-07-29T08:07:10;21.50;94.10
73576;DHT22;61859;49.204;8.140;2023-07-29T08:09:35;21.60;93.90
73576;DHT22;61859;49.204;8.140;2023-07-29T08:12:01;21.60;94.50
73576;DHT22;61859;49.204;8.140;2023-07-29T08:14:26;21.60;92.90
73576;DHT22;61859;49.204;8.140;2023-07-29T08:16:52;21.50;93.00
73576;DHT22;61859;49.204;8.140;2023-07-29T08:19:17;21.60;93.40
73576;DHT22;61859;49.204;8.140;2023-07-29T08:21:43;21.60;92.70
73576;DHT22;61859;49.204;8.140;2023-07-29T08:24:09;21.60;93.30
73576;DHT22;61859;49.204;8.140;2023-07-29T08:26:34;21.60;93.50
73576;DHT22;61859;49.204;8.140;2023-07-29T08:29:00;21.80;92.60
73576;DHT22;61859;49.204;8.140;2023-07-29T08:31:25;22.10;93.40
73576;DHT22;61859;49.204;8.140;2023-07-29T08:33:51;22.70;91.00
73576;DHT22;61859;49.204;8.140;2023-07-29T08:36:17;22.90;90.80
73576;DHT22;61859;49.204;8.140;2023-07-29T08:38:42;23.30;88.70
73576;DHT22;61859;49.204;8.140;2023-07-29T08:41:16;23.60;87.70
73576;DHT22;61859;49.204;8.140;2023-07-29T08:44:12;23.60;86.70
73576;DHT22;61859;49.204;8.140;2023-07-29T08:46:38;23.50;85.10
73576;DHT22;61859;49.204;8.140;2023-07-29T08:49:03;23.50;87.00
73576;DHT22;61859;49.204;8.140;2023-07-29T08:51:31;23.40;85.00
73576;DHT22;61859;49.204;8.140;2023-07-29T08:53:58;23.30;84.90
73576;DHT22;61859;49.204;8.140;2023-07-29T08:56:24;23.30;84.90
73576;DHT22;61859;49.204;8.140;2023-07-29T08:58:50;23.20;84.50
73576;DHT22;61859;49.204;8.140;2023-07-29T09:01:16;23.10;83.30
73576;DHT22;61859;49.204;8.140;2023-07-29T09:03:42;23.00;84.10
73576;DHT22;61859;49.204;8.140;2023-07-29T09:06:08;23.10;84.70
73576;DHT22;61859;49.204;8.140;2023-07-29T09:08:34;23.40;85.30
73576;DHT22;61859;49.204;8.140;2023-07-29T09:11:00;23.80;83.20
73576;DHT22;61859;49.204;8.140;2023-07-29T09:13:26;24.20;82.30
73576;DHT22;61859;49.204;8.140;2023-07-29T09:15:57;24.40;79.50
73576;DHT22;61859;49.204;8.140;2023-07-29T09:18:22;24.30;79.30
73576;DHT22;61859;49.204;8.140;2023-07-29T09:20:49;24.20;80.00
73576;DHT22;61859;49.204;8.140;2023-07-29T09:23:15;24.00;79.70
73576;DHT22;61859;49.204;8.140;2023-07-29T09:25:41;24.00;80.00
73576;DHT22;61859;49.204;8.140;2023-07-29T09:28:15;24.10;80.60
73576;DHT22;61859;49.204;8.140;2023-07-29T09:30:42;24.50;80.60
73576;DHT22;61859;49.204;8.140;2023-07-29T09:33:08;24.80;79.00
73576;DHT22;61859;49.204;8.140;2023-07-29T09:35:35;25.10;76.80
73576;DHT22;61859;49.204;8.140;2023-07-29T09:38:05;25.10;76.60
73576;DHT22;61859;49.204;8.140;2023-07-29T09:40:36;25.30;77.30
73576;DHT22;61859;49.204;8.140;2023-07-29T09:43:03;25.70;74.90
73576;DHT22;61859;49.204;8.140;2023-07-29T09:45:29;26.20;74.30
73576;DHT22;61859;49.204;8.140;2023-07-29T09:47:57;26.40;71.00
73576;DHT22;61859;49.204;8.140;2023-07-29T09:50:26;26.40;71.40
73576;DHT22;61859;49.204;8.140;2023-07-29T09:52:53;26.50;71.70
73576;DHT22;61859;49.204;8.140;2023-07-29T09:55:22;26.20;71.40
73576;DHT22;61859;49.204;8.140;2023-07-29T09:57:55;26.00;70.80
73576;DHT22;61859;49.204;8.140;2023-07-29T10:00:21;25.40;72.40
73576;DHT22;61859;49.204;8.140;2023-07-29T10:02:47;24.70;74.10
73576;DHT22;61859;49.204;8.140;2023-07-29T10:05:13;24.50;76.30
73576;DHT22;61859;49.204;8.140;2023-07-29T10:07:39;24.80;74.40
73576;DHT22;61859;49.204;8.140;2023-07-29T10:10:06;25.30;72.60
73576;DHT22;61859;49.204;8.140;2023-07-29T10:12:32;25.80;72.20
73576;DHT22;61859;49.204;8.140;2023-07-29T10:15:02;26.60;71.30
73576;DHT22;61859;49.204;8.140;2023-07-29T10:17:28;27.00;70.30
73576;DHT22;61859;49.204;8.140;2023-07-29T10:19:55;27.50;67.90
73576;DHT22;61859;49.204;8.140;2023-07-29T10:22:25;27.50;67.00
73576;DHT22;61859;49.204;8.140;2023-07-29T10:24:54;27.30;66.60
73576;DHT22;61859;49.204;8.140;2023-07-29T10:27:23;27.00;67.60
73576;DHT22;61859;49.204;8.140;2023-07-29T10:29:50;26.90;67.00
73576;DHT22;61859;49.204;8.140;2023-07-29T10:32:17;27.20;65.40
73576;DHT22;61859;49.204;8.140;2023-07-29T10:34:44;27.80;66.30
73576;DHT22;61859;49.204;8.140;2023-07-29T10:37:10;28.20;63.40
73576;DHT22;61859;49.204;8.140;2023-07-29T10:39:40;28.00;61.30
73576;DHT22;61859;49.204;8.140;2023-07-29T10:42:06;26.90;61.40
73576;DHT22;61859;49.204;8.140;2023-07-29T10:47:29;25.80;69.50
73576;DHT22;61859;49.204;8.140;2023-07-29T10:49:59;25.00;72.20
73576;DHT22;61859;49.204;8.140;2023-07-29T10:55:00;23.70;78.10
73576;DHT22;61859;49.204;8.140;2023-07-29T10:57:34;23.20;80.30
73576;DHT22;61859;49.204;8.140;2023-07-29T11:00:01;22.90;81.40
73576;DHT22;61859;49.204;8.140;2023-07-29T11:02:32;22.80;84.30
73576;DHT22;61859;49.204;8.140;2023-07-29T11:04:58;22.90;82.60
73576;DHT22;61859;49.204;8.140;2023-07-29T11:07:25;23.30;82.60
73576;DHT22;61859;49.204;8.140;2023-07-29T11:10:00;23.90;82.10
73576;DHT22;61859;49.204;8.140;2023-07-29T11:15:14;25.00;76.20
73576;DHT22;61859;49.204;8.140;2023-07-29T11:17:43;25.30;73.70
73576;DHT22;61859;49.204;8.140;2023-07-29T11:20:10;25.80;74.20
73576;DHT22;61859;49.204;8.140;2023-07-29T11:22:37;26.30;72.70
73576;DHT22;61859;49.204;8.140;2023-07-29T11:25:03;26.60;70.50
73576;DHT22;61859;49.204;8.140;2023-07-29T11:27:28;26.60;68.30
73576;DHT22;61859;49.204;8.140;2023-07-29T11:30:01;26.40;68.70
73576;DHT22;61859;49.204;8.140;2023-07-29T11:32:27;26.60;69.20
73576;DHT22;61859;49.204;8.140;2023-07-29T11:34:52;27.00;67.70
73576;DHT22;61859;49.204;8.140;2023-07-29T11:37:18;27.10;65.50
73576;DHT22;61859;49.204;8.140;2023-07-29T11:39:45;27.00;65.70
73576;DHT22;61859;49.204;8.140;2023-07-29T11:42:12;27.10;66.80
73576;DHT22;61859;49.204;8.140;2023-07-29T11:44:37;27.30;63.90
73576;DHT22;61859;49.204;8.140;2023-07-29T11:47:10;26.90;64.90
73576;DHT22;61859;49.204;8.140;2023-07-29T11:49:36;27.00;66.90
73576;DHT22;61859;49.204;8.140;2023-07-29T11:52:04;27.30;63.30
73576;DHT22;61859;49.204;8.140;2023-07-29T11:54:31;27.70;63.60
73576;DHT22;61859;49.204;8.140;2023-07-29T11:56:57;28.00;61.70
73576;DHT22;61859;49.204;8.140;2023-07-29T11:59:23;27.70;62.20
73576;DHT22;61859;49.204;8.140;2023-07-29T12:01:48;27.90;62.20
73576;DHT22;61859;49.204;8.140;2023-07-29T12:04:14;28.10;59.70
73576;DHT22;61859;49.204;8.140;2023-07-29T12:06:40;28.40;58.50
73576;DHT22;61859;49.204;8.140;2023-07-29T12:09:06;29.00;57.70
73576;DHT22;61859;49.204;8.140;2023-07-29T12:11:33;29.60;55.70
73576;DHT22;61859;49.204;8.140;2023-07-29T12:14:00;29.60;54.10
73576;DHT22;61859;49.204;8.140;2023-07-29T12:16:25;29.60;53.50
73576;DHT22;61859;49.204;8.140;2023-07-29T12:18:51;29.60;53.40
73576;DHT22;61859;49.204;8.140;2023-07-29T12:21:18;29.50;53.30
73576;DHT22;61859;49.204;8.140;2023-07-29T12:23:44;29.00;53.00
73576;DHT22;61859;49.204;8.140;2023-07-29T12:26:10;28.80;54.70
73576;DHT22;61859;49.204;8.140;2023-07-29T12:28:35;29.30;56.00
73576;DHT22;61859;49.204;8.140;2023-07-29T12:31:01;29.10;52.70
73576;DHT22;61859;49.204;8.140;2023-07-29T12:33:35;28.60;53.70
73576;DHT22;61859;49.204;8.140;2023-07-29T12:36:01;28.10;55.30
73576;DHT22;61859;49.204;8.140;2023-07-29T12:38:28;28.10;56.00
73576;DHT22;61859;49.204;8.140;2023-07-29T12:40:53;28.70;55.60
73576;DHT22;61859;49.204;8.140;2023-07-29T12:43:19;29.00;53.10
73576;DHT22;61859;49.204;8.140;2023-07-29T12:45:44;28.70;52.80
73576;DHT22;61859;49.204;8.140;2023-07-29T12:48:10;28.20;54.60
73576;DHT22;61859;49.204;8.140;2023-07-29T12:50:37;27.80;54.70
73576;DHT22;61859;49.204;8.140;2023-07-29T12:53:03;27.60;54.80
73576;DHT22;61859;49.204;8.140;2023-07-29T12:55:29;27.50;54.30
73576;DHT22;61859;49.204;8.140;2023-07-29T12:57:54;27.60;55.20
73576;DHT22;61859;49.204;8.140;2023-07-29T13:00:20;28.10;54.60
73576;DHT22;61859;49.204;8.140;2023-07-29T13:02:46;28.40;53.40
73576;DHT22;61859;49.204;8.140;2023-07-29T13:05:11;28.20;54.50
73576;DHT22;61859;49.204;8.140;2023-07-29T13:07:41;28.30;55.80
73576;DHT22;61859;49.204;8.140;2023-07-29T13:10:08;28.50;55.50
73576;DHT22;61859;49.204;8.140;2023-07-29T13:12:34;28.70;54.50
73576;DHT22;61859;49.204;8.140;2023-07-29T13:14:59;28.80;53.80
73576;DHT22;61859;49.204;8.140;2023-07-29T13:17:25;28.60;54.30
73576;DHT22;61859;49.204;8.140;2023-07-29T13:19:51;28.10;55.10
73576;DHT22;61859;49.204;8.140;2023-07-29T13:22:17;27.70;55.70
73576;DHT22;61859;49.204;8.140;2023-07-29T13:24:42;27.40;57.30
73576;DHT22;61859;49.204;8.140;2023-07-29T13:27:08;27.60;56.40
73576;DHT22;61859;49.204;8.140;2023-07-29T13:29:33;27.40;56.00
73576;DHT22;61859;49.204;8.140;2023-07-29T13:31:59;26.90;58.80
73576;DHT22;61859;49.204;8.140;2023-07-29T13:34:24;26.80;59.30
73576;DHT22;61859;49.204;8.140;2023-07-29T13:36:50;27.10;59.00
73576;DHT22;61859;49.204;8.140;2023-07-29T13:39:15;27.80;58.10
73576;DHT22;61859;49.204;8.140;2023-07-29T13:41:41;28.30;57.70
73576;DHT22;61859;49.204;8.140;2023-07-29T13:44:07;28.80;56.90
73576;DHT22;61859;49.204;8.140;2023-07-29T13:46:32;29.40;51.60
73576;DHT22;61859;49.204;8.140;2023-07-29T13:48:58;29.60;52.50
73576;DHT22;61859;49.204;8.140;2023-07-29T13:51:24;29.70;52.40
73576;DHT22;61859;49.204;8.140;2023-07-29T13:53:49;29.80;52.10
73576;DHT22;61859;49.204;8.140;2023-07-29T13:56:15;30.00;52.90
73576;DHT22;61859;49.204;8.140;2023-07-29T13:58:40;30.20;50.20
73576;DHT22;61859;49.204;8.140;2023-07-29T14:01:06;30.30;51.50
73576;DHT22;61859;49.204;8.140;2023-07-29T14:03:31;30.70;50.30
73576;DHT22;61859;49.204;8.140;2023-07-29T14:05:57;30.60;50.70
73576;DHT22;61859;49.204;8.140;2023-07-29T14:08:22;30.50;51.40
73576;DHT22;61859;49.204;8.140;2023-07-29T14:10:51;30.20;53.00
73576;DHT22;61859;49.204;8.140;2023-07-29T14:13:17;30.70;51.40
73576;DHT22;61859;49.204;8.140;2023-07-29T14:15:42;31.00;50.00
73576;DHT22;61859;49.204;8.140;2023-07-29T14:18:08;31.40;49.10
73576;DHT22;61859;49.204;8.140;2023-07-29T14:20:33;31.50;48.80
73576;DHT22;61859;49.204;8.140;2023-07-29T14:22:59;31.40;49.10
73576;DHT22;61859;49.204;8.140;2023-07-29T14:25:25;30.90;49.30
73576;DHT22;61859;49.204;8.140;2023-07-29T14:27:50;30.50;50.40
73576;DHT22;61859;49.204;8.140;2023-07-29T14:30:16;30.50;49.60
73576;DHT22;61859;49.204;8.140;2023-07-29T14:32:41;30.20;50.60
73576;DHT22;61859;49.204;8.140;2023-07-29T14:35:07;29.90;51.40
73576;DHT22;61859;49.204;8.140;2023-07-29T14:37:33;30.10;50.30
73576;DHT22;61859;49.204;8.140;2023-07-29T14:39:59;30.30;50.00
73576;DHT22;61859;49.204;8.140;2023-07-29T14:42:25;30.80;51.20
73576;DHT22;61859;49.204;8.140;2023-07-29T14:44:50;31.50;48.60
73576;DHT22;61859;49.204;8.140;2023-07-29T14:47:16;31.80;48.40
73576;DHT22;61859;49.204;8.140;2023-07-29T14:49:41;32.10;48.20
73576;DHT22;61859;49.204;8.140;2023-07-29T14:52:07;31.90;47.90
73576;DHT22;61859;49.204;8.140;2023-07-29T14:54:33;31.70;47.20
73576;DHT22;61859;49.204;8.140;2023-07-29T14:56:58;31.00;48.20
73576;DHT22;61859;49.204;8.140;2023-07-29T14:59:24;29.70;50.10
73576;DHT22;61859;49.204;8.140;2023-07-29T15:01:49;29.30;52.20
73576;DHT22;61859;49.204;8.140;2023-07-29T15:04:15;29.30;51.90
73576;DHT22;61859;49.204;8.140;2023-07-29T15:06:41;29.10;51.80
73576;DHT22;61859;49.204;8.140;2023-07-29T15:09:07;29.00;51.80
73576;DHT22;61859;49.204;8.140;2023-07-29T15:11:32;28.90;52.60
73576;DHT22;61859;49.204;8.140;2023-07-29T15:13:59;28.80;51.30
73576;DHT22;61859;49.204;8.140;2023-07-29T15:16:25;28.70;52.10
73576;DHT22;61859;49.204;8.140;2023-07-29T15:18:51;28.30;53.80
73576;DHT22;61859;49.204;8.140;2023-07-29T15:21:17;27.80;55.60
73576;DHT22;61859;49.204;8.140;2023-07-29T15:23:43;27.50;57.30
73576;DHT22;61859;49.204;8.140;2023-07-29T15:26:09;27.20;57.60
73576;DHT22;61859;49.204;8.140;2023-07-29T15:28:34;27.10;57.70
73576;DHT22;61859;49.204;8.140;2023-07-29T15:31:00;27.30;58.30
73576;DHT22;61859;49.204;8.140;2023-07-29T15:33:26;27.50;57.90
73576;DHT22;61859;49.204;8.140;2023-07-29T15:35:51;27.40;57.70
73576;DHT22;61859;49.204;8.140;2023-07-29T15:38:17;27.20;57.40